KJRB/JRB METAR and TAF weather

Enter ICAO airport designator
Station Type Date Time Source
KJRB METAR 2019/05/26 00:56 UTC NOAA

KJRB 260056Z AUTO 19008KT 10SM FEW050 BKN065 BKN110 16/12 A3011 RMK AO2 SLP196 T01610117


Station Type Date Time Source
KJRB Decoded METAR 2019/05/26 00:56 UTC NOAA

Station name not available
May 25, 2019 - 08:56 PM EDT / 2019.05.26 0056 UTC
Wind: from the S (190 degrees) at 9 MPH (8 KT):0
Visibility: 10 mile(s):0
Sky conditions: mostly cloudy
Temperature: 61.0 F (16.1 C)
Dew Point: 53.1 F (11.7 C)
Relative Humidity: 75%
Pressure (altimeter): 30.11 in. Hg (1019 hPa)
ob: KJRB 260056Z AUTO 19008KT 10SM FEW050 BKN065 BKN110 16/12 A3011 RMK AO2 SLP196 T01610117
cycle: 1

Station Type Date Time Source
KJRB TAF UTC NOAA

Error!

Example: see airport list